createdAt,value
2019-01-31T00:01:38.520Z,66.01
2019-01-31T00:04:27.892Z,66.10
2019-01-31T00:07:06.320Z,66.53
2019-01-31T00:10:00.336Z,66.58
2019-01-31T00:13:02.951Z,65.95
2019-01-31T00:15:38.920Z,66.62
2019-01-31T00:18:24.732Z,66.74
2019-01-31T00:21:00.581Z,66.58
2019-01-31T00:24:00.526Z,66.39
2019-01-31T00:26:40.147Z,66.61
2019-01-31T00:29:30.929Z,66.44
2019-01-31T00:32:07.566Z,66.51
2019-01-31T00:34:48.595Z,66.52
2019-01-31T00:37:45.304Z,66.53
2019-01-31T00:40:33.534Z,66.63
2019-01-31T00:43:15.218Z,66.41
2019-01-31T00:46:06.406Z,66.35
2019-01-31T00:48:41.868Z,66.48
2019-01-31T00:51:20.117Z,66.54
2019-01-31T00:54:10.818Z,66.32
2019-01-31T00:56:52.498Z,66.53
2019-01-31T00:59:32.774Z,66.55
2019-01-31T01:02:21.063Z,66.39
2019-01-31T01:05:17.614Z,66.24
2019-01-31T01:07:54.714Z,66.50
2019-01-31T01:10:49.035Z,66.59
2019-01-31T01:13:25.670Z,66.56
2019-01-31T01:16:04.192Z,66.43
2019-01-31T01:18:41.881Z,66.49
2019-01-31T01:21:31.550Z,66.36
2019-01-31T01:24:10.896Z,66.45
2019-01-31T01:27:01.668Z,66.49
2019-01-31T01:29:36.674Z,66.52
2019-01-31T01:32:33.971Z,66.47
2019-01-31T01:35:23.146Z,66.38
2019-01-31T01:38:14.935Z,66.06
2019-01-31T01:41:09.279Z,66.43
2019-01-31T01:43:54.919Z,66.55
2019-01-31T01:46:48.601Z,66.28
2019-01-31T01:49:30.181Z,66.26
2019-01-31T01:52:23.916Z,66.29
2019-01-31T01:55:14.888Z,66.30
2019-01-31T01:58:14.335Z,66.15
2019-01-31T02:00:52.795Z,66.20
2019-01-31T02:03:43.380Z,66.11
2019-01-31T02:06:49.697Z,65.90
2019-01-31T02:09:39.803Z,66.16
2019-01-31T02:12:24.615Z,66.06
2019-01-31T02:15:27.331Z,66.12
2019-01-31T02:18:05.770Z,66.19
2019-01-31T02:21:02.752Z,66.07
2019-01-31T02:23:56.935Z,65.65
2019-01-31T02:26:38.992Z,66.13
2019-01-31T02:29:32.700Z,66.02
2019-01-31T02:32:26.605Z,66.00
2019-01-31T02:35:17.047Z,65.97
2019-01-31T02:38:07.512Z,65.53
2019-01-31T02:40:54.285Z,65.68
2019-01-31T02:43:48.438Z,65.85
2019-01-31T02:46:33.936Z,65.50
2019-01-31T02:49:24.880Z,65.49
2019-01-31T02:52:09.562Z,65.54
2019-01-31T02:55:06.725Z,65.53
2019-01-31T02:58:01.794Z,65.23
2019-01-31T03:00:52.465Z,65.19
2019-01-31T03:03:41.560Z,64.73
2019-01-31T03:06:41.531Z,64.44
2019-01-31T03:09:26.667Z,64.89
2019-01-31T03:12:02.168Z,64.45
2019-01-31T03:14:39.212Z,65.27
2019-01-31T03:17:28.440Z,65.62
2019-01-31T03:20:03.780Z,65.36
2019-01-31T03:22:53.435Z,63.87
2019-01-31T03:25:46.804Z,64.64
2019-01-31T03:28:40.645Z,64.32
2019-01-31T03:31:29.866Z,63.83
2019-01-31T03:34:14.615Z,63.72
2019-01-31T03:36:53.195Z,63.65
2019-01-31T03:39:35.063Z,63.79
2019-01-31T03:42:24.581Z,64.41
2019-01-31T03:45:00.584Z,64.38
2019-01-31T03:48:06.466Z,64.58
2019-01-31T03:51:10.067Z,64.49
2019-01-31T03:53:48.448Z,62.83
2019-01-31T03:56:31.167Z,63.76
2019-01-31T03:59:15.075Z,63.54
2019-01-31T04:01:54.569Z,63.76
2019-01-31T04:08:20.486Z,64.13
2019-01-31T04:10:53.118Z,64.21
2019-01-31T04:13:25.420Z,63.84
2019-01-31T04:15:57.541Z,64.02
2019-01-31T04:18:29.772Z,64.19
2019-01-31T04:21:09.128Z,64.23
2019-01-31T04:23:44.278Z,64.19
2019-01-31T04:26:16.422Z,63.83
2019-01-31T04:28:48.834Z,63.96
2019-01-31T04:31:20.999Z,63.91
2019-01-31T04:33:53.251Z,63.95
2019-01-31T04:36:25.412Z,64.08
2019-01-31T04:38:58.630Z,63.95
2019-01-31T04:41:31.258Z,64.08
2019-01-31T04:44:03.563Z,64.17
2019-01-31T04:46:35.828Z,64.08
2019-01-31T04:49:08.358Z,64.17
2019-01-31T04:51:40.409Z,64.00
2019-01-31T04:54:12.736Z,63.94
2019-01-31T04:56:45.257Z,64.02
2019-01-31T04:59:17.446Z,64.15
2019-01-31T05:01:49.752Z,64.21
2019-01-31T05:04:22.196Z,64.22
2019-01-31T05:06:54.436Z,63.51
2019-01-31T05:09:27.829Z,63.72
2019-01-31T05:12:00.395Z,63.60
2019-01-31T05:14:32.832Z,63.44
2019-01-31T05:17:05.227Z,63.32
2019-01-31T05:19:37.739Z,62.66
2019-01-31T05:22:10.124Z,62.31
2019-01-31T05:24:42.312Z,62.46
2019-01-31T05:27:14.849Z,62.47
2019-01-31T05:29:47.054Z,62.48
2019-01-31T05:32:19.521Z,62.52
2019-01-31T05:34:51.684Z,62.66
2019-01-31T05:37:24.059Z,62.52
2019-01-31T05:39:59.423Z,62.94
2019-01-31T05:42:33.287Z,63.38
2019-01-31T05:45:08.453Z,63.00
2019-01-31T05:47:41.770Z,62.99
2019-01-31T05:50:17.769Z,63.12
2019-01-31T05:52:50.226Z,63.01
2019-01-31T05:55:22.485Z,63.29
2019-01-31T05:57:55.415Z,63.20
2019-01-31T06:00:35.438Z,63.15
2019-01-31T06:03:07.544Z,62.74
2019-01-31T06:05:40.886Z,62.57
2019-01-31T06:08:13.256Z,62.47
2019-01-31T06:10:45.311Z,62.33
2019-01-31T06:13:17.591Z,62.64
2019-01-31T06:15:49.702Z,62.73
2019-01-31T06:18:21.793Z,62.75
2019-01-31T06:20:54.100Z,63.01
2019-01-31T06:23:26.365Z,62.92
2019-01-31T06:25:58.517Z,63.08
2019-01-31T06:28:30.679Z,63.15
2019-01-31T06:31:02.910Z,63.34
2019-01-31T06:33:35.021Z,63.37
2019-01-31T06:36:07.316Z,63.39
2019-01-31T06:38:39.587Z,63.41
2019-01-31T06:41:18.328Z,63.55
2019-01-31T06:43:45.892Z,63.47
2019-01-31T06:46:19.400Z,63.63
2019-01-31T06:48:51.625Z,63.46
2019-01-31T06:51:23.884Z,63.43
2019-01-31T06:53:56.033Z,63.46
2019-01-31T06:56:28.164Z,63.67
2019-01-31T06:59:00.370Z,63.23
2019-01-31T07:01:32.558Z,63.28
2019-01-31T07:04:04.682Z,63.30
2019-01-31T07:06:36.845Z,63.50
2019-01-31T07:09:11.598Z,63.36
2019-01-31T07:11:43.735Z,62.66
2019-01-31T07:14:16.289Z,62.92
2019-01-31T07:16:48.473Z,62.92
2019-01-31T07:19:20.866Z,63.14
2019-01-31T07:21:53.079Z,63.11
2019-01-31T07:24:25.470Z,62.95
2019-01-31T07:34:07.478Z,62.21
2019-01-31T07:36:39.992Z,62.50
2019-01-31T07:39:12.092Z,62.15
2019-01-31T07:41:44.214Z,59.65
2019-01-31T07:44:16.469Z,58.26
2019-01-31T07:46:48.607Z,59.47
2019-01-31T07:49:20.854Z,59.91
2019-01-31T07:51:53.160Z,60.14
2019-01-31T07:54:25.457Z,60.27
2019-01-31T07:56:57.657Z,60.40
2019-01-31T07:59:29.825Z,60.33
2019-01-31T08:02:02.149Z,60.38
2019-01-31T08:04:34.399Z,60.85
2019-01-31T08:07:06.679Z,60.51
2019-01-31T08:09:38.895Z,60.63
2019-01-31T08:12:11.088Z,60.78
2019-01-31T08:14:43.182Z,60.87
2019-01-31T08:17:15.463Z,60.81
2019-01-31T08:19:47.545Z,60.98
2019-01-31T08:22:19.753Z,60.83
2019-01-31T08:24:51.900Z,61.47
2019-01-31T08:27:24.365Z,62.20
2019-01-31T08:29:56.430Z,62.74
2019-01-31T08:32:28.759Z,62.74
2019-01-31T08:35:02.085Z,62.90
2019-01-31T08:37:35.357Z,63.03
2019-01-31T08:40:07.852Z,62.88
2019-01-31T08:42:40.160Z,63.16
2019-01-31T08:45:12.797Z,63.28
2019-01-31T08:47:46.181Z,63.42
2019-01-31T08:50:19.677Z,63.00
2019-01-31T08:52:52.868Z,62.89
2019-01-31T08:55:25.171Z,63.15
2019-01-31T08:57:57.386Z,63.05
2019-01-31T09:00:30.425Z,63.09
2019-01-31T09:03:02.584Z,63.12
2019-01-31T09:05:35.026Z,63.19
2019-01-31T09:08:07.229Z,63.25
2019-01-31T09:10:40.147Z,63.07
2019-01-31T09:13:13.083Z,63.16
2019-01-31T09:15:45.264Z,63.42
2019-01-31T09:18:17.421Z,63.48
2019-01-31T09:20:51.469Z,63.49
2019-01-31T09:23:40.709Z,63.57
2019-01-31T09:26:43.536Z,63.26
2019-01-31T09:29:30.892Z,63.10
2019-01-31T09:32:20.540Z,63.39
2019-01-31T09:35:11.176Z,63.56
2019-01-31T09:38:20.437Z,63.62
2019-01-31T09:41:09.274Z,63.49
2019-01-31T09:44:00.247Z,63.38
2019-01-31T09:46:36.418Z,63.59
2019-01-31T09:49:45.412Z,63.97
2019-01-31T09:52:37.054Z,63.90
2019-01-31T09:55:42.877Z,63.98
2019-01-31T09:58:42.069Z,64.05
2019-01-31T10:01:25.491Z,64.14
2019-01-31T10:04:02.669Z,64.13
2019-01-31T10:06:52.092Z,64.23
2019-01-31T10:09:39.223Z,64.15
2019-01-31T10:12:25.473Z,64.08
2019-01-31T10:15:22.030Z,64.18
2019-01-31T10:18:01.854Z,64.31
2019-01-31T10:20:52.468Z,64.20
2019-01-31T10:23:29.601Z,64.10
2019-01-31T10:26:08.428Z,64.24
2019-01-31T10:29:05.140Z,64.02
2019-01-31T10:31:41.059Z,63.79
2019-01-31T10:34:16.623Z,63.08
2019-01-31T10:37:10.233Z,63.66
2019-01-31T10:39:54.875Z,63.82
2019-01-31T10:42:50.486Z,63.89
2019-01-31T10:45:41.685Z,63.09
2019-01-31T10:48:19.202Z,63.57
2019-01-31T10:50:58.515Z,63.73
2019-01-31T10:53:47.478Z,63.70
2019-01-31T10:56:44.232Z,63.94
2019-01-31T10:59:33.849Z,63.97
2019-01-31T11:02:34.542Z,64.01
2019-01-31T11:05:33.153Z,63.94
2019-01-31T11:08:14.092Z,64.09
2019-01-31T11:11:01.236Z,64.09
2019-01-31T11:13:51.900Z,64.12
2019-01-31T11:16:36.994Z,64.06
2019-01-31T11:19:19.003Z,64.20
2019-01-31T11:22:24.976Z,64.12
2019-01-31T11:39:43.732Z,64.15
2019-01-31T11:42:34.353Z,64.06
2019-01-31T11:45:37.121Z,64.14
2019-01-31T11:48:22.061Z,64.18
2019-01-31T11:51:21.855Z,64.10
2019-01-31T11:53:59.016Z,64.24
2019-01-31T11:56:48.320Z,64.21
2019-01-31T11:59:20.542Z,64.12
2019-01-31T12:01:52.865Z,64.15
2019-01-31T12:04:25.011Z,64.12
2019-01-31T12:06:58.288Z,64.22
2019-01-31T12:09:30.322Z,64.37
2019-01-31T12:12:02.661Z,64.31
2019-01-31T12:14:34.927Z,64.35
2019-01-31T12:17:07.311Z,64.47
2019-01-31T12:19:39.497Z,64.51
2019-01-31T12:22:12.043Z,64.62
2019-01-31T12:24:44.457Z,64.59
2019-01-31T12:27:16.972Z,64.66
2019-01-31T12:29:49.086Z,64.76
2019-01-31T12:32:21.540Z,64.70
2019-01-31T12:34:53.717Z,64.78
2019-01-31T12:37:27.194Z,64.83
2019-01-31T12:40:06.449Z,64.75
2019-01-31T12:42:38.844Z,64.74
2019-01-31T12:45:13.439Z,64.81
2019-01-31T12:47:45.756Z,64.88
2019-01-31T12:50:19.215Z,64.91
2019-01-31T12:52:51.509Z,64.93
2019-01-31T12:55:23.646Z,65.07
2019-01-31T12:57:55.812Z,65.09
2019-01-31T13:00:29.078Z,65.06
2019-01-31T13:03:01.267Z,65.19
2019-01-31T13:05:35.003Z,65.27
2019-01-31T13:08:07.147Z,65.31
2019-01-31T13:10:39.339Z,65.33
2019-01-31T13:13:11.847Z,65.27
2019-01-31T13:15:44.182Z,65.35
2019-01-31T13:18:16.471Z,65.47
2019-01-31T13:20:48.701Z,64.97
2019-01-31T13:23:20.969Z,64.73
2019-01-31T13:25:53.580Z,65.32
2019-01-31T13:28:25.719Z,65.39
2019-01-31T13:30:57.934Z,65.37
2019-01-31T13:33:30.171Z,65.51
2019-01-31T13:36:02.543Z,65.62
2019-01-31T13:38:34.762Z,65.62
2019-01-31T13:41:07.052Z,65.57
2019-01-31T13:43:39.403Z,65.41
2019-01-31T13:46:11.778Z,65.10
2019-01-31T13:48:44.153Z,65.64
2019-01-31T13:51:16.209Z,65.75
2019-01-31T13:53:48.339Z,65.88
2019-01-31T13:56:20.544Z,65.95
2019-01-31T13:58:52.691Z,65.92
2019-01-31T14:01:24.990Z,65.95
2019-01-31T14:03:58.076Z,66.04
2019-01-31T14:06:30.409Z,65.94
2019-01-31T14:09:02.597Z,65.99
2019-01-31T14:11:36.227Z,65.92
2019-01-31T14:14:09.403Z,65.99
2019-01-31T14:16:47.769Z,65.90
2019-01-31T14:19:15.380Z,65.70
2019-01-31T14:21:47.621Z,64.64
2019-01-31T14:24:19.790Z,64.98
2019-01-31T14:26:51.816Z,65.13
2019-01-31T14:29:24.146Z,65.11
2019-01-31T14:31:56.362Z,64.76
2019-01-31T14:34:29.029Z,65.23
2019-01-31T14:37:01.167Z,65.20
2019-01-31T14:39:35.680Z,65.31
2019-01-31T14:42:07.868Z,65.14
2019-01-31T14:44:40.263Z,64.86
2019-01-31T14:47:12.597Z,65.00
2019-01-31T14:49:44.979Z,64.94
2019-01-31T14:52:17.133Z,65.03
2019-01-31T14:54:49.611Z,64.45
2019-01-31T14:57:21.781Z,64.68
2019-01-31T14:59:54.005Z,63.59
2019-01-31T15:02:26.367Z,62.00
2019-01-31T15:04:58.514Z,62.25
2019-01-31T15:07:30.785Z,63.12
2019-01-31T15:10:03.012Z,63.31
2019-01-31T15:12:35.223Z,63.44
2019-01-31T15:15:07.840Z,63.40
2019-01-31T15:17:39.896Z,63.88
2019-01-31T15:20:14.796Z,63.86
2019-01-31T15:22:47.027Z,63.92
2019-01-31T15:25:19.639Z,63.99
2019-01-31T15:27:51.959Z,63.96
2019-01-31T15:30:25.500Z,64.04
2019-01-31T15:32:57.731Z,63.83
2019-01-31T15:35:30.124Z,63.28
2019-01-31T15:38:02.276Z,63.61
2019-01-31T15:40:35.905Z,63.58
2019-01-31T15:43:08.124Z,63.75
2019-01-31T15:45:40.461Z,63.63
2019-01-31T15:48:12.866Z,63.27
2019-01-31T15:50:45.299Z,63.19
2019-01-31T15:53:17.529Z,63.21
2019-01-31T15:55:49.961Z,63.60
2019-01-31T15:58:22.310Z,63.27
2019-01-31T16:00:55.585Z,62.61
2019-01-31T16:03:28.198Z,62.00
2019-01-31T16:06:00.493Z,61.75
2019-01-31T16:08:32.773Z,61.66
2019-01-31T16:11:05.383Z,61.17
2019-01-31T16:13:38.673Z,61.45
2019-01-31T16:16:10.895Z,61.26
2019-01-31T16:18:43.090Z,61.48
2019-01-31T16:21:16.322Z,60.89
2019-01-31T16:23:48.610Z,60.85
2019-01-31T16:26:20.919Z,61.60
2019-01-31T16:28:53.743Z,61.10
2019-01-31T16:31:27.194Z,61.31
2019-01-31T16:33:59.330Z,61.47
2019-01-31T16:36:34.046Z,61.11
2019-01-31T16:39:07.462Z,61.21
2019-01-31T16:41:39.716Z,60.87
2019-01-31T16:44:12.025Z,60.93
2019-01-31T16:46:44.489Z,61.22
2019-01-31T16:49:16.644Z,60.89
2019-01-31T16:51:48.980Z,60.81
2019-01-31T16:54:22.113Z,61.11
2019-01-31T16:56:54.525Z,61.20
2019-01-31T16:59:26.769Z,61.07
2019-01-31T17:01:59.095Z,60.91
2019-01-31T17:04:34.269Z,60.85
2019-01-31T17:07:05.703Z,60.81
2019-01-31T17:09:39.423Z,60.38
2019-01-31T17:12:12.172Z,60.13
2019-01-31T17:14:44.441Z,59.78
2019-01-31T17:17:16.979Z,60.34
2019-01-31T17:19:50.046Z,60.57
2019-01-31T17:22:22.484Z,60.43
2019-01-31T17:24:56.501Z,61.75
2019-01-31T17:27:28.854Z,62.09
2019-01-31T17:30:01.007Z,62.82
2019-01-31T17:32:33.753Z,63.44
2019-01-31T17:35:05.981Z,62.31
2019-01-31T17:37:38.393Z,63.80
2019-01-31T17:40:11.969Z,63.98
2019-01-31T17:42:44.444Z,63.22
2019-01-31T17:45:17.204Z,64.00
2019-01-31T17:47:49.746Z,64.30
2019-01-31T17:50:22.420Z,63.76
2019-01-31T17:53:02.009Z,64.12
2019-01-31T17:55:34.096Z,64.99
2019-01-31T17:58:06.617Z,64.49
2019-01-31T18:00:43.760Z,65.20
2019-01-31T18:03:16.274Z,64.31
2019-01-31T18:05:48.606Z,64.16
2019-01-31T18:08:20.895Z,63.99
2019-01-31T18:10:53.041Z,64.85
2019-01-31T18:13:25.568Z,65.05
2019-01-31T18:15:58.065Z,65.15
2019-01-31T18:18:30.482Z,65.12
2019-01-31T18:21:02.730Z,64.99
2019-01-31T18:23:35.464Z,64.69
2019-01-31T18:26:07.649Z,65.37
2019-01-31T18:28:40.102Z,65.52
2019-01-31T18:31:12.418Z,65.45
2019-01-31T18:33:44.790Z,65.48
2019-01-31T18:36:16.819Z,65.19
2019-01-31T18:38:51.441Z,65.33
2019-01-31T18:41:24.110Z,65.78
2019-01-31T18:43:56.490Z,64.90
2019-01-31T18:46:29.115Z,65.80
2019-01-31T18:49:01.489Z,65.08
2019-01-31T18:51:33.667Z,65.41
2019-01-31T18:54:06.013Z,65.88
2019-01-31T18:56:38.178Z,65.38
2019-01-31T18:59:10.633Z,64.52
2019-01-31T19:01:43.000Z,65.65
2019-01-31T19:04:15.730Z,65.12
2019-01-31T19:06:48.059Z,64.66
2019-01-31T19:09:20.526Z,64.62
2019-01-31T19:11:52.690Z,64.39
2019-01-31T19:14:26.550Z,64.34
2019-01-31T19:16:59.188Z,64.77
2019-01-31T19:19:31.619Z,64.90
2019-01-31T19:22:03.831Z,64.06
2019-01-31T19:24:36.242Z,64.70
2019-01-31T19:27:08.482Z,64.86
2019-01-31T19:29:41.285Z,65.08
2019-01-31T19:32:13.606Z,65.81
2019-01-31T19:34:45.917Z,65.87
2019-01-31T19:37:19.155Z,65.81
2019-01-31T19:39:51.452Z,65.21
2019-01-31T19:42:23.769Z,65.03
2019-01-31T19:44:56.098Z,65.50
2019-01-31T19:47:28.872Z,65.62
2019-01-31T19:50:01.418Z,66.07
2019-01-31T19:52:33.505Z,66.57
2019-01-31T19:55:05.841Z,66.49
2019-01-31T19:57:39.005Z,66.75
2019-01-31T20:00:12.152Z,66.24
2019-01-31T20:02:44.462Z,66.82
2019-01-31T20:05:16.765Z,66.75
2019-01-31T20:07:49.105Z,66.82
2019-01-31T20:10:22.282Z,66.91
2019-01-31T20:12:54.674Z,65.84
2019-01-31T20:15:27.029Z,66.36
2019-01-31T20:18:00.575Z,66.93
2019-01-31T20:20:32.568Z,67.11
2019-01-31T20:23:04.931Z,66.67
2019-01-31T20:25:37.109Z,66.41
2019-01-31T20:28:09.636Z,66.71
2019-01-31T20:30:41.738Z,66.82
2019-01-31T20:33:14.062Z,66.13
2019-01-31T20:35:46.378Z,66.35
2019-01-31T20:38:18.745Z,65.94
2019-01-31T20:40:51.838Z,66.14
2019-01-31T20:43:24.197Z,66.56
2019-01-31T20:45:57.617Z,66.75
2019-01-31T20:48:30.352Z,66.45
2019-01-31T20:51:02.705Z,66.58
2019-01-31T20:53:35.083Z,65.98
2019-01-31T20:56:07.440Z,66.55
2019-01-31T20:58:40.231Z,66.71
2019-01-31T21:01:12.531Z,66.36
2019-01-31T21:03:44.904Z,66.07
2019-01-31T21:06:17.068Z,65.91
2019-01-31T21:08:49.447Z,66.30
2019-01-31T21:11:24.095Z,66.37
2019-01-31T21:13:56.380Z,66.91
2019-01-31T21:16:28.574Z,66.80
2019-01-31T21:19:00.802Z,66.47
2019-01-31T21:21:32.950Z,66.20
2019-01-31T21:24:05.408Z,66.30
2019-01-31T21:26:37.627Z,66.25
2019-01-31T21:29:10.308Z,66.30
2019-01-31T21:31:42.515Z,66.24
2019-01-31T21:34:14.964Z,66.22
2019-01-31T21:36:47.086Z,66.21
2019-01-31T21:39:19.400Z,66.03
2019-01-31T21:41:51.755Z,66.13
2019-01-31T21:44:25.053Z,66.40
2019-01-31T21:47:03.158Z,66.58
2019-01-31T21:49:31.515Z,66.87
2019-01-31T21:52:03.565Z,66.91
2019-01-31T21:54:36.038Z,66.96
2019-01-31T21:57:08.195Z,66.82
2019-01-31T21:59:43.698Z,67.06
2019-01-31T22:02:16.021Z,67.18
2019-01-31T22:04:48.529Z,67.15
2019-01-31T22:07:20.985Z,67.21
2019-01-31T22:09:53.553Z,67.19
2019-01-31T22:12:25.908Z,67.34
2019-01-31T22:14:59.743Z,67.40
2019-01-31T22:17:31.995Z,67.46
2019-01-31T22:20:04.207Z,67.43
2019-01-31T22:22:36.578Z,67.56
2019-01-31T22:25:09.231Z,67.44
2019-01-31T22:27:41.806Z,67.43
2019-01-31T22:30:15.784Z,67.43
2019-01-31T22:32:48.418Z,67.39
2019-01-31T22:35:20.594Z,67.27
2019-01-31T22:37:53.150Z,67.29
2019-01-31T22:40:25.621Z,67.32
2019-01-31T22:42:58.099Z,67.34
2019-01-31T22:45:30.392Z,67.47
2019-01-31T22:48:02.842Z,67.52
2019-01-31T22:50:36.141Z,67.45
2019-01-31T22:53:08.555Z,67.52
2019-01-31T22:55:40.608Z,67.53
2019-01-31T22:58:12.943Z,67.49
2019-01-31T23:01:07.169Z,67.61
2019-01-31T23:03:40.322Z,67.28
2019-01-31T23:06:13.952Z,67.43
2019-01-31T23:08:46.153Z,67.41
2019-01-31T23:11:18.441Z,67.50
2019-01-31T23:13:51.133Z,67.54
2019-01-31T23:16:23.446Z,67.58
2019-01-31T23:18:55.705Z,67.55
2019-01-31T23:21:27.974Z,67.49
2019-01-31T23:24:00.211Z,67.34
2019-01-31T23:26:32.363Z,67.59
2019-01-31T23:29:04.687Z,67.52
2019-01-31T23:31:36.747Z,67.59
2019-01-31T23:34:09.024Z,67.58
2019-01-31T23:36:41.310Z,67.55
2019-01-31T23:39:13.844Z,67.56
2019-01-31T23:41:46.020Z,67.61
2019-01-31T23:44:18.299Z,67.65
2019-01-31T23:46:50.556Z,67.76
2019-01-31T23:49:22.746Z,67.51
2019-01-31T23:51:54.920Z,67.60
2019-01-31T23:54:27.163Z,67.64
2019-01-31T23:57:00.291Z,67.53
2019-01-31T23:59:32.515Z,67.40
